UPSVAC Airport Information Service

Malaga airport

ICAO: LEMG Country: Spain, EU
Latitude: 36.6749 Longitude: -4.49911
Latest Arrival : UPSJUMP (EDDK-LEMG) Latest Departure : UPSE189 (LEMG-EDDK)


WX CaptureLIVE
Data provided by noaa.gov | Fetched at 14:46:11

METAR : LEMG 251430Z 35004KT 320V040 9999 FEW030 BKN050 20/13 Q1017 NOSIG

TAF : LEMG 251100Z 2512/2612 29008KT 9999 FEW035 TX21/2513Z TN13/2606Z PROB40 TEMPO 2512/2515 14005KT


Runway Data for LEMG
Data provided by openaviationdata.com

Runway ID Mag Var Hdg Length Elevation Surface ILS Freq ILS Id ILS Slope
12 -3 120° 10138 ft 52 ft Asphalt 110.55 IMG 3
13 -3 134° 10499 ft 52 ft Asphalt 109.5 GMM 3
31 -3 314° 10499 ft 52 ft Asphalt 109.9 GAA 3

Malaga airport, Spain, EU
Use only for reference purposes



Not for navigational purposes.